createdAt,value
2022-10-19T00:01:27.278Z,5.60
2022-10-19T00:03:56.789Z,5.60
2022-10-19T00:06:34.893Z,5.50
2022-10-19T00:09:11.870Z,5.60
2022-10-19T00:11:41.484Z,5.60
2022-10-19T00:14:10.973Z,5.50
2022-10-19T00:16:39.150Z,5.50
2022-10-19T00:19:09.329Z,5.50
2022-10-19T00:21:37.737Z,5.50
2022-10-19T00:24:05.592Z,5.50
2022-10-19T00:26:33.306Z,5.50
2022-10-19T00:29:00.564Z,5.40
2022-10-19T00:31:28.137Z,5.40
2022-10-19T00:33:57.917Z,5.40
2022-10-19T00:36:28.426Z,5.40
2022-10-19T00:38:56.564Z,5.40
2022-10-19T00:41:30.625Z,5.40
2022-10-19T00:43:57.804Z,5.40
2022-10-19T00:46:26.980Z,5.40
2022-10-19T00:49:00.303Z,5.40
2022-10-19T00:51:29.517Z,5.30
2022-10-19T00:53:57.253Z,5.30
2022-10-19T00:56:24.791Z,5.20
2022-10-19T00:58:51.826Z,5.30
2022-10-19T01:01:23.850Z,5.20
2022-10-19T01:03:50.922Z,5.20
2022-10-19T01:06:21.351Z,5.20
2022-10-19T01:08:48.408Z,5.20
2022-10-19T01:11:28.976Z,5.20
2022-10-19T01:14:01.869Z,5.20
2022-10-19T01:16:38.249Z,5.20
2022-10-19T01:19:29.931Z,5.20
2022-10-19T01:22:44.944Z,5.20
2022-10-19T01:25:32.646Z,5.10
2022-10-19T01:28:20.448Z,5.10
2022-10-19T01:30:59.008Z,5.10
2022-10-19T01:33:36.405Z,5.00
2022-10-19T01:36:42.886Z,5.10
2022-10-19T01:39:13.939Z,5.00
2022-10-19T01:41:48.142Z,5.10
2022-10-19T01:44:37.310Z,5.00
2022-10-19T01:47:13.104Z,5.00
2022-10-19T01:49:53.478Z,5.00
2022-10-19T01:52:23.094Z,5.00
2022-10-19T01:54:53.860Z,4.90
2022-10-19T01:57:25.837Z,4.90
2022-10-19T01:59:54.106Z,4.90
2022-10-19T02:02:21.890Z,4.90
2022-10-19T02:04:50.254Z,4.90
2022-10-19T02:07:19.087Z,4.90
2022-10-19T02:09:46.074Z,4.90
2022-10-19T02:12:15.054Z,4.90
2022-10-19T02:14:47.585Z,4.80
2022-10-19T02:17:24.949Z,4.80
2022-10-19T02:19:54.051Z,4.80
2022-10-19T02:22:21.843Z,4.80
2022-10-19T02:24:48.823Z,4.70
2022-10-19T02:27:17.446Z,4.70
2022-10-19T02:29:45.007Z,4.80
2022-10-19T02:32:12.355Z,4.80
2022-10-19T02:34:40.028Z,4.70
2022-10-19T02:37:07.521Z,4.70
2022-10-19T02:39:34.530Z,4.70
2022-10-19T02:42:14.876Z,4.60
2022-10-19T02:44:58.311Z,4.60
2022-10-19T02:47:36.228Z,4.60
2022-10-19T02:50:10.085Z,4.60
2022-10-19T02:52:38.381Z,4.60
2022-10-19T02:55:06.859Z,4.60
2022-10-19T02:57:34.763Z,4.60
2022-10-19T03:00:03.630Z,4.50
2022-10-19T03:02:30.711Z,4.50
2022-10-19T03:04:57.680Z,4.50
2022-10-19T03:07:24.809Z,4.50
2022-10-19T03:09:51.812Z,4.50
2022-10-19T03:12:19.300Z,4.40
2022-10-19T03:14:46.248Z,4.50
2022-10-19T03:17:13.668Z,4.50
2022-10-19T03:19:40.690Z,4.50
2022-10-19T03:22:08.058Z,4.50
2022-10-19T03:24:35.058Z,4.50
2022-10-19T03:27:02.276Z,4.40
2022-10-19T03:29:29.188Z,4.50
2022-10-19T03:31:56.182Z,4.40
2022-10-19T03:34:23.604Z,4.40
2022-10-19T03:36:50.838Z,4.50
2022-10-19T03:39:18.395Z,4.50
2022-10-19T03:41:45.742Z,4.40
2022-10-19T03:44:13.108Z,4.40
2022-10-19T03:46:40.470Z,4.40
2022-10-19T03:49:09.269Z,4.50
2022-10-19T03:51:36.606Z,4.40
2022-10-19T03:54:13.152Z,4.40
2022-10-19T03:56:40.484Z,4.40
2022-10-19T03:59:07.745Z,4.40
2022-10-19T04:01:37.654Z,4.40
2022-10-19T04:04:09.712Z,4.40
2022-10-19T04:06:41.344Z,4.30
2022-10-19T04:09:09.737Z,4.40
2022-10-19T04:11:37.597Z,4.40
2022-10-19T04:14:05.225Z,4.30
2022-10-19T04:16:32.687Z,4.30
2022-10-19T04:18:59.896Z,4.30
2022-10-19T04:21:31.033Z,4.30
2022-10-19T04:24:01.489Z,4.30
2022-10-19T04:26:28.517Z,4.30
2022-10-19T04:29:01.502Z,4.30
2022-10-19T04:31:29.015Z,4.30
2022-10-19T04:33:56.643Z,4.30
2022-10-19T04:36:24.352Z,4.30
2022-10-19T04:38:51.449Z,4.30
2022-10-19T04:41:21.079Z,4.20
2022-10-19T04:43:49.215Z,4.20
2022-10-19T04:46:19.104Z,4.20
2022-10-19T04:48:47.657Z,4.10
2022-10-19T04:51:16.109Z,4.10
2022-10-19T04:53:44.146Z,4.10
2022-10-19T04:56:17.762Z,4.10
2022-10-19T04:58:45.540Z,4.10
2022-10-19T05:01:22.418Z,4.20
2022-10-19T05:03:54.132Z,4.10
2022-10-19T05:06:21.026Z,4.30
2022-10-19T05:08:52.490Z,4.30
2022-10-19T05:11:20.311Z,4.30
2022-10-19T05:13:48.119Z,4.30
2022-10-19T05:16:18.374Z,4.20
2022-10-19T05:18:56.026Z,4.20
2022-10-19T05:21:23.033Z,4.20
2022-10-19T05:23:53.000Z,4.10
2022-10-19T05:26:23.069Z,4.10
2022-10-19T05:28:56.567Z,4.00
2022-10-19T05:31:28.151Z,4.00
2022-10-19T05:33:58.693Z,4.00
2022-10-19T05:36:37.130Z,4.00
2022-10-19T05:39:15.888Z,4.00
2022-10-19T05:41:47.279Z,4.00
2022-10-19T05:44:19.360Z,4.00
2022-10-19T05:46:46.465Z,4.00
2022-10-19T05:49:14.677Z,4.00
2022-10-19T05:51:41.800Z,4.10
2022-10-19T05:54:09.942Z,4.10
2022-10-19T05:56:37.175Z,4.00
2022-10-19T05:59:06.927Z,4.00
2022-10-19T06:01:35.209Z,4.10
2022-10-19T06:04:03.052Z,4.00
2022-10-19T06:06:31.913Z,4.00
2022-10-19T06:08:59.537Z,4.00
2022-10-19T06:11:28.928Z,4.00
2022-10-19T06:13:59.694Z,4.00
2022-10-19T06:16:27.697Z,4.00
2022-10-19T06:18:55.786Z,4.00
2022-10-19T06:21:25.126Z,4.00
2022-10-19T06:24:00.263Z,4.00
2022-10-19T06:26:27.877Z,4.00
2022-10-19T06:29:00.540Z,4.00
2022-10-19T06:31:29.630Z,4.00
2022-10-19T06:33:56.547Z,4.00
2022-10-19T06:36:25.833Z,4.10
2022-10-19T06:38:53.752Z,4.10
2022-10-19T06:41:21.045Z,4.10
2022-10-19T06:43:52.282Z,4.10
2022-10-19T06:46:22.186Z,4.20
2022-10-19T06:48:57.593Z,4.20
2022-10-19T06:51:26.289Z,4.20
2022-10-19T06:53:56.492Z,4.20
2022-10-19T06:56:24.971Z,4.20
2022-10-19T06:58:52.964Z,4.30
2022-10-19T07:01:20.226Z,4.30
2022-10-19T07:03:47.415Z,4.40
2022-10-19T07:06:14.833Z,4.60
2022-10-19T07:08:42.734Z,4.60
2022-10-19T07:11:20.946Z,4.80
2022-10-19T07:13:48.858Z,4.80
2022-10-19T07:16:20.702Z,5.00
2022-10-19T07:18:50.680Z,4.80
2022-10-19T07:21:18.607Z,4.90
2022-10-19T07:23:47.551Z,5.00
2022-10-19T07:26:27.511Z,5.10
2022-10-19T07:28:56.876Z,5.10
2022-10-19T07:31:25.072Z,5.10
2022-10-19T07:33:54.224Z,5.20
2022-10-19T07:36:21.895Z,5.40
2022-10-19T07:38:48.843Z,5.30
2022-10-19T07:41:18.767Z,5.40
2022-10-19T07:43:46.899Z,5.40
2022-10-19T07:46:22.082Z,5.50
2022-10-19T07:48:49.265Z,5.50
2022-10-19T07:51:18.458Z,5.60
2022-10-19T07:53:46.027Z,5.50
2022-10-19T07:56:16.095Z,5.70
2022-10-19T07:58:43.420Z,5.60
2022-10-19T08:01:16.593Z,5.60
2022-10-19T08:04:34.677Z,5.60
2022-10-19T08:06:31.962Z,5.60
2022-10-19T08:08:59.103Z,5.70
2022-10-19T08:11:29.168Z,5.90
2022-10-19T08:13:59.505Z,5.90
2022-10-19T08:16:28.027Z,5.80
2022-10-19T08:18:59.580Z,5.90
2022-10-19T08:21:28.249Z,6.10
2022-10-19T08:23:55.541Z,6.20
2022-10-19T08:26:22.914Z,6.10
2022-10-19T08:28:50.198Z,6.10
2022-10-19T08:31:20.372Z,6.20
2022-10-19T08:33:49.387Z,6.20
2022-10-19T08:36:16.452Z,6.20
2022-10-19T08:38:45.056Z,6.40
2022-10-19T08:41:39.870Z,6.40
2022-10-19T08:44:33.972Z,6.40
2022-10-19T08:47:43.775Z,6.30
2022-10-19T08:50:37.810Z,6.30
2022-10-19T08:53:16.371Z,6.40
2022-10-19T08:56:03.765Z,6.40
2022-10-19T08:58:39.373Z,6.50
2022-10-19T09:01:33.954Z,6.50
2022-10-19T09:04:18.325Z,6.60
2022-10-19T09:07:17.743Z,6.60
2022-10-19T09:09:50.639Z,6.70
2022-10-19T09:12:24.772Z,7.00
2022-10-19T09:14:55.284Z,7.00
2022-10-19T09:17:22.269Z,7.00
2022-10-19T09:19:49.574Z,7.00
2022-10-19T09:22:22.295Z,7.10
2022-10-19T09:25:00.979Z,7.20
2022-10-19T09:27:39.069Z,7.20
2022-10-19T09:30:15.709Z,7.30
2022-10-19T09:32:43.124Z,7.20
2022-10-19T09:35:27.941Z,7.30
2022-10-19T09:37:56.146Z,7.40
2022-10-19T09:40:26.201Z,7.50
2022-10-19T09:43:13.724Z,7.50
2022-10-19T09:46:11.621Z,7.50
2022-10-19T09:48:51.825Z,7.70
2022-10-19T09:51:20.063Z,7.60
2022-10-19T09:53:55.610Z,7.50
2022-10-19T09:56:25.293Z,7.70
2022-10-19T09:58:58.328Z,7.60
2022-10-19T10:01:41.831Z,7.80
2022-10-19T10:04:15.300Z,7.70
2022-10-19T10:06:44.617Z,7.80
2022-10-19T10:09:22.456Z,7.90
2022-10-19T10:11:51.517Z,7.80
2022-10-19T10:14:25.672Z,7.80
2022-10-19T10:17:05.110Z,7.90
2022-10-19T10:19:34.270Z,8.00
2022-10-19T10:22:03.318Z,7.90
2022-10-19T10:24:32.904Z,8.00
2022-10-19T10:27:03.315Z,8.00
2022-10-19T10:29:34.598Z,8.10
2022-10-19T10:32:06.955Z,8.30
2022-10-19T10:34:53.854Z,8.30
2022-10-19T10:37:35.042Z,8.40
2022-10-19T10:40:05.034Z,8.30
2022-10-19T10:42:44.194Z,8.30
2022-10-19T10:45:26.003Z,8.20
2022-10-19T10:47:54.462Z,8.20
2022-10-19T10:50:27.972Z,8.30
2022-10-19T10:53:07.222Z,8.50
2022-10-19T10:55:34.676Z,8.40
2022-10-19T10:58:16.157Z,8.60
2022-10-19T11:00:44.236Z,8.50
2022-10-19T11:03:25.529Z,8.40
2022-10-19T11:05:57.490Z,8.30
2022-10-19T11:08:58.147Z,8.30
2022-10-19T11:11:34.262Z,8.30
2022-10-19T11:14:19.655Z,8.30
2022-10-19T11:16:49.467Z,8.50
2022-10-19T11:19:25.405Z,8.40
2022-10-19T11:21:55.135Z,8.60
2022-10-19T11:24:46.365Z,8.70
2022-10-19T11:27:34.585Z,8.60
2022-10-19T11:30:20.433Z,8.50
2022-10-19T11:33:05.928Z,8.50
2022-10-19T11:35:54.035Z,8.40
2022-10-19T11:38:51.361Z,8.40
2022-10-19T11:41:45.632Z,8.60
2022-10-19T11:44:38.448Z,8.60
2022-10-19T11:47:08.152Z,8.70
2022-10-19T11:49:59.250Z,8.90
2022-10-19T11:52:35.538Z,8.90
2022-10-19T11:55:24.838Z,9.00
2022-10-19T11:58:13.997Z,9.10
2022-10-19T12:00:57.276Z,9.20
2022-10-19T12:03:44.564Z,9.20
2022-10-19T12:06:26.580Z,9.10
2022-10-19T12:09:12.744Z,9.20
2022-10-19T12:12:15.422Z,9.30
2022-10-19T12:14:45.819Z,9.20
2022-10-19T12:17:29.584Z,9.40
2022-10-19T12:20:03.485Z,9.30
2022-10-19T12:22:31.543Z,9.20
2022-10-19T12:25:01.388Z,9.20
2022-10-19T12:27:40.610Z,9.40
2022-10-19T12:30:28.374Z,9.50
2022-10-19T12:33:25.219Z,9.50
2022-10-19T12:36:12.351Z,9.40
2022-10-19T12:39:00.101Z,9.60
2022-10-19T12:41:36.130Z,9.50
2022-10-19T12:44:15.186Z,9.60
2022-10-19T12:46:48.407Z,9.60
2022-10-19T12:49:30.319Z,9.40
2022-10-19T12:52:17.350Z,9.50
2022-10-19T12:56:34.261Z,9.40
2022-10-19T12:58:28.285Z,9.30
2022-10-19T13:01:02.459Z,9.20
2022-10-19T13:03:59.173Z,9.20
2022-10-19T13:09:48.231Z,9.30
2022-10-19T13:12:43.464Z,9.30
2022-10-19T13:16:16.688Z,9.20
2022-10-19T13:19:21.081Z,9.30
2022-10-19T13:22:06.151Z,9.20
2022-10-19T13:25:39.772Z,9.10
2022-10-19T13:28:15.422Z,9.00
2022-10-19T13:30:47.040Z,9.00
2022-10-19T13:34:02.551Z,8.90
2022-10-19T13:36:40.538Z,8.90
2022-10-19T13:39:29.531Z,8.90
2022-10-19T13:42:16.089Z,8.90
2022-10-19T13:44:49.466Z,8.80
2022-10-19T13:47:41.949Z,8.90
2022-10-19T13:54:14.881Z,9.00
2022-10-19T13:57:21.804Z,9.10
2022-10-19T13:59:57.469Z,9.20
2022-10-19T14:03:44.245Z,9.10
2022-10-19T14:06:54.427Z,9.00
2022-10-19T14:09:26.689Z,8.90
2022-10-19T14:12:49.082Z,8.90
2022-10-19T14:15:24.288Z,8.80
2022-10-19T14:40:52.953Z,8.90
2022-10-19T14:53:52.476Z,8.80
2022-10-19T14:56:27.454Z,8.70
2022-10-19T14:58:59.385Z,8.60
2022-10-19T15:01:26.370Z,8.50
2022-10-19T15:03:53.905Z,8.50
2022-10-19T15:06:28.522Z,8.50
2022-10-19T15:09:01.060Z,8.40
2022-10-19T15:11:39.806Z,8.40
2022-10-19T15:14:51.951Z,8.30
2022-10-19T15:17:51.617Z,8.30
2022-10-19T15:33:59.790Z,8.00
2022-10-19T15:36:28.519Z,8.00
2022-10-19T15:39:06.266Z,7.90
2022-10-19T15:41:45.469Z,7.90
2022-10-19T15:44:33.804Z,7.90
2022-10-19T15:47:19.914Z,7.90
2022-10-19T15:49:47.002Z,7.80
2022-10-19T15:52:32.597Z,7.90
2022-10-19T15:55:00.741Z,7.80
2022-10-19T15:57:32.005Z,7.80
2022-10-19T16:00:01.931Z,7.80
2022-10-19T16:02:28.856Z,7.80
2022-10-19T16:04:55.908Z,7.80
2022-10-19T16:07:29.294Z,7.70
2022-10-19T16:09:56.558Z,7.70
2022-10-19T16:12:26.317Z,7.60
2022-10-19T16:14:54.420Z,7.50
2022-10-19T16:17:21.747Z,7.50
2022-10-19T16:19:48.875Z,7.50
2022-10-19T16:22:16.591Z,7.50
2022-10-19T16:24:46.358Z,7.50
2022-10-19T16:27:15.320Z,7.50
2022-10-19T16:29:43.695Z,7.50
2022-10-19T16:32:10.749Z,7.50
2022-10-19T16:34:38.121Z,7.50
2022-10-19T16:37:07.050Z,7.40
2022-10-19T16:39:34.716Z,7.40
2022-10-19T16:42:01.546Z,7.40
2022-10-19T16:44:28.694Z,7.40
2022-10-19T16:46:59.316Z,7.30
2022-10-19T16:49:26.939Z,7.30
2022-10-19T16:51:56.510Z,7.30
2022-10-19T16:54:26.534Z,7.30
2022-10-19T16:56:53.521Z,7.30
2022-10-19T16:59:20.846Z,7.30
2022-10-19T17:01:48.124Z,7.30
2022-10-19T17:04:17.205Z,7.30
2022-10-19T17:06:44.707Z,7.30
2022-10-19T17:11:59.147Z,7.20
2022-10-19T17:14:26.211Z,7.20
2022-10-19T17:16:53.070Z,7.20
2022-10-19T17:19:20.120Z,7.20
2022-10-19T17:21:49.373Z,7.10
2022-10-19T17:24:21.389Z,7.10
2022-10-19T17:26:51.604Z,7.10
2022-10-19T17:29:19.214Z,7.10
2022-10-19T17:31:46.442Z,7.10
2022-10-19T17:34:13.771Z,7.10
2022-10-19T17:36:44.708Z,7.10
2022-10-19T17:39:18.026Z,7.10
2022-10-19T17:41:46.613Z,7.10
2022-10-19T17:44:13.604Z,7.10
2022-10-19T17:46:40.584Z,7.00
2022-10-19T17:49:07.599Z,7.00
2022-10-19T17:51:36.899Z,7.00
2022-10-19T17:54:07.747Z,6.90
2022-10-19T17:56:36.150Z,6.90
2022-10-19T17:59:03.278Z,6.90
2022-10-19T18:01:31.097Z,6.90
2022-10-19T18:03:58.061Z,6.90
2022-10-19T18:06:31.608Z,6.80
2022-10-19T18:09:00.394Z,6.80
2022-10-19T18:11:29.250Z,6.80
2022-10-19T18:13:58.599Z,6.90
2022-10-19T18:16:28.402Z,6.90
2022-10-19T18:18:57.368Z,6.90
2022-10-19T18:21:27.710Z,6.80
2022-10-19T18:23:56.842Z,6.80
2022-10-19T18:26:26.194Z,6.80
2022-10-19T18:28:55.193Z,6.80
2022-10-19T18:31:41.152Z,6.80
2022-10-19T18:34:11.899Z,6.80
2022-10-19T18:36:38.892Z,6.80
2022-10-19T18:39:07.584Z,6.70
2022-10-19T18:41:34.608Z,6.70
2022-10-19T18:44:05.188Z,6.70
2022-10-19T18:46:34.100Z,6.70
2022-10-19T18:49:02.194Z,6.70
2022-10-19T18:51:29.809Z,6.70
2022-10-19T18:53:56.658Z,6.60
2022-10-19T18:56:24.269Z,6.60
2022-10-19T18:58:51.666Z,6.60
2022-10-19T19:01:23.136Z,6.60
2022-10-19T19:03:52.038Z,6.60
2022-10-19T19:06:22.168Z,6.60
2022-10-19T19:08:49.481Z,6.60
2022-10-19T19:11:22.336Z,6.50
2022-10-19T19:13:54.783Z,6.60
2022-10-19T19:16:22.957Z,6.60
2022-10-19T19:18:50.450Z,6.50
2022-10-19T19:21:24.982Z,6.60
2022-10-19T19:23:53.548Z,6.60
2022-10-19T19:26:22.325Z,6.50
2022-10-19T19:28:51.671Z,6.50
2022-10-19T19:31:19.024Z,6.50
2022-10-19T19:33:47.368Z,6.50
2022-10-19T19:36:16.416Z,6.50
2022-10-19T19:38:43.938Z,6.50
2022-10-19T19:41:15.360Z,6.40
2022-10-19T19:43:42.996Z,6.40
2022-10-19T19:46:18.813Z,6.40
2022-10-19T19:48:48.200Z,6.40
2022-10-19T19:51:20.983Z,6.40
2022-10-19T19:53:48.648Z,6.30
2022-10-19T19:56:16.689Z,6.30
2022-10-19T19:58:45.182Z,6.40
2022-10-19T20:01:36.632Z,6.30
2022-10-19T20:04:04.405Z,6.30
2022-10-19T20:06:33.333Z,6.20
2022-10-19T20:09:00.445Z,6.20
2022-10-19T20:11:29.213Z,6.20
2022-10-19T20:13:56.780Z,6.20
2022-10-19T20:16:29.405Z,6.20
2022-10-19T20:19:08.993Z,6.20
2022-10-19T20:21:36.392Z,6.20
2022-10-19T20:24:03.788Z,6.20
2022-10-19T20:26:31.054Z,6.20
2022-10-19T20:28:58.344Z,6.20
2022-10-19T20:31:25.750Z,6.10
2022-10-19T20:34:00.946Z,6.10
2022-10-19T20:36:27.877Z,6.00
2022-10-19T20:38:56.871Z,6.00
2022-10-19T20:41:26.818Z,6.00
2022-10-19T20:43:54.297Z,6.00
2022-10-19T20:46:24.143Z,6.10
2022-10-19T20:48:52.208Z,6.00
2022-10-19T20:51:24.890Z,6.00
2022-10-19T20:53:56.003Z,6.00
2022-10-19T20:56:26.284Z,6.00
2022-10-19T20:58:58.113Z,6.00
2022-10-19T21:01:25.969Z,5.90
2022-10-19T21:03:58.752Z,6.00
2022-10-19T21:06:27.342Z,5.90
2022-10-19T21:08:55.035Z,6.00
2022-10-19T21:11:25.064Z,6.00
2022-10-19T21:13:56.559Z,6.00
2022-10-19T21:16:27.669Z,5.90
2022-10-19T21:18:54.740Z,5.90
2022-10-19T21:21:30.129Z,5.90
2022-10-19T21:23:59.480Z,5.90
2022-10-19T21:26:28.112Z,5.90
2022-10-19T21:28:55.864Z,5.90
2022-10-19T21:31:24.245Z,5.90
2022-10-19T21:33:51.904Z,5.80
2022-10-19T21:36:20.127Z,5.90
2022-10-19T21:38:47.075Z,5.80
2022-10-19T21:41:19.661Z,5.80
2022-10-19T21:43:49.340Z,5.80
2022-10-19T21:46:18.498Z,5.80
2022-10-19T21:48:48.888Z,5.80
2022-10-19T21:51:21.319Z,5.80
2022-10-19T21:53:48.322Z,5.80
2022-10-19T21:56:16.067Z,5.80
2022-10-19T21:58:50.960Z,5.80
2022-10-19T22:01:19.775Z,5.70
2022-10-19T22:03:46.862Z,5.70
2022-10-19T22:06:14.839Z,5.70
2022-10-19T22:08:45.416Z,5.70
2022-10-19T22:11:13.793Z,5.70
2022-10-19T22:13:41.406Z,5.60
2022-10-19T22:16:17.074Z,5.60
2022-10-19T22:18:44.730Z,5.50
2022-10-19T22:21:15.182Z,5.50
2022-10-19T22:23:43.010Z,5.50
2022-10-19T22:26:13.796Z,5.50
2022-10-19T22:28:40.781Z,5.50
2022-10-19T22:31:07.877Z,5.50
2022-10-19T22:33:35.431Z,5.50
2022-10-19T22:36:04.488Z,5.40
2022-10-19T22:38:31.601Z,5.40
2022-10-19T22:40:58.650Z,5.40
2022-10-19T22:43:25.743Z,5.40
2022-10-19T22:45:52.717Z,5.40
2022-10-19T22:48:20.169Z,5.30
2022-10-19T22:50:47.259Z,5.30
2022-10-19T22:53:14.530Z,5.30
2022-10-19T22:55:41.589Z,5.30
2022-10-19T22:58:09.592Z,5.30
2022-10-19T23:00:37.074Z,5.30
2022-10-19T23:03:04.158Z,5.20
2022-10-19T23:05:31.250Z,5.20
2022-10-19T23:07:58.332Z,5.20
2022-10-19T23:10:25.356Z,5.20
2022-10-19T23:12:53.387Z,5.20
2022-10-19T23:15:21.678Z,5.20
2022-10-19T23:17:48.709Z,5.20
2022-10-19T23:20:15.746Z,5.10
2022-10-19T23:22:42.628Z,5.20
2022-10-19T23:25:09.723Z,5.10
2022-10-19T23:27:37.302Z,5.10
2022-10-19T23:30:04.990Z,5.20
2022-10-19T23:32:32.295Z,5.20
2022-10-19T23:34:59.141Z,5.10
2022-10-19T23:37:26.131Z,5.10
2022-10-19T23:39:53.039Z,5.10
2022-10-19T23:42:19.905Z,5.10
2022-10-19T23:44:46.785Z,5.00
2022-10-19T23:47:13.731Z,5.10
2022-10-19T23:49:40.643Z,5.00
2022-10-19T23:52:07.717Z,5.00
2022-10-19T23:54:34.727Z,5.00
2022-10-19T23:57:01.698Z,5.00
2022-10-19T23:59:28.687Z,5.00
